Time;durP1;ratioP1;P1;durP2;ratioP2;P2;SDS_P1;SDS_P2;PMS_P1;PMS_P2;Temp;Humidity;BMP_temperature;BMP_pressure;BME280_temperature;BME280_humidity;BME280_pressure;Samples;Min_cycle;Max_cycle;Signal;HPM_P1;HPM_P2
2023/01/31 00:01:34;;;;;;;24.70;4.30;;;;;;;1.74;93.19;99521.02;130855;1286;22556;-81
2023/01/31 00:04:43;;;;;;;19.40;4.20;;;;;;;1.75;93.40;99524.67;130945;1293;24231;-80
2023/01/31 00:07:46;;;;;;;15.60;4.20;;;;;;;1.75;93.29;99530.92;130785;1293;24231;-83
2023/01/31 00:10:49;;;;;;;15.20;3.40;;;;;;;1.75;93.45;99529.71;130993;1288;26581;-80
2023/01/31 00:13:51;;;;;;;20.80;4.40;;;;;;;1.76;93.26;99528.23;131288;1286;22665;-80
2023/01/31 00:16:54;;;;;;;19.00;3.50;;;;;;;1.76;93.27;99531.38;131227;1289;25371;-80
2023/01/31 00:19:54;;;;;;;16.30;3.80;;;;;;;1.76;93.30;99533.83;131050;1293;23109;-80
2023/01/31 00:22:55;;;;;;;27.30;4.00;;;;;;;1.74;93.26;99534.61;130864;1293;23016;-80
2023/01/31 00:26:05;;;;;;;;;;;;;;;1.73;93.17;99539.61;131054;1289;25310;-80
2023/01/31 00:29:06;;;;;;;19.50;3.90;;;;;;;1.72;93.32;99542.30;130926;1285;23654;-80
2023/01/31 00:32:07;;;;;;;20.60;4.90;;;;;;;1.72;93.17;99547.42;130549;1291;24853;-79
2023/01/31 00:35:10;;;;;;;23.30;4.10;;;;;;;1.69;93.07;99544.29;130988;1294;22715;-80
2023/01/31 00:38:10;;;;;;;20.70;3.50;;;;;;;1.71;92.79;99551.14;130986;1286;22552;-80
2023/01/31 00:41:11;;;;;;;18.70;4.30;;;;;;;1.73;92.79;99555.89;131103;1294;22553;-80
2023/01/31 00:44:14;;;;;;;26.70;4.20;;;;;;;1.73;92.87;99556.33;131059;1294;22641;-80
2023/01/31 00:47:18;;;;;;;25.30;4.60;;;;;;;1.77;92.47;99557.95;131112;1287;22563;-80
2023/01/31 00:50:18;;;;;;;22.90;4.70;;;;;;;1.78;92.48;99560.80;130852;1288;24545;-80
2023/01/31 00:53:24;;;;;;;25.20;4.30;;;;;;;1.80;92.20;99563.47;131020;1292;22558;-80
2023/01/31 00:56:28;;;;;;;19.60;3.80;;;;;;;1.83;92.22;99567.59;130758;1292;23353;-82
2023/01/31 00:59:29;;;;;;;21.50;4.10;;;;;;;1.84;91.78;99571.02;130917;1293;22665;-82
2023/01/31 01:02:30;;;;;;;33.60;4.50;;;;;;;1.84;91.92;99574.85;131270;1289;22556;-80
2023/01/31 01:05:31;;;;;;;17.40;4.70;;;;;;;1.83;91.68;99572.83;130823;1287;24531;-82
2023/01/31 01:08:32;;;;;;;;;;;;;;;1.84;91.54;99573.09;131479;1288;25493;-80
2023/01/31 01:11:34;;;;;;;19.00;4.90;;;;;;;1.87;91.60;99585.97;131184;1294;22569;-80
2023/01/31 01:14:38;;;;;;;19.20;3.60;;;;;;;1.87;91.27;99590.65;131385;1295;22617;-80
2023/01/31 01:17:43;;;;;;;10.90;3.20;;;;;;;1.87;91.30;99586.43;131104;1286;23280;-80
2023/01/31 01:20:44;;;;;;;20.30;3.60;;;;;;;1.89;91.14;99595.59;131125;1290;22613;-80
2023/01/31 01:23:49;;;;;;;21.60;4.20;;;;;;;1.88;90.87;99599.45;130872;1292;22555;-80
2023/01/31 01:26:53;;;;;;;15.70;4.30;;;;;;;1.85;90.59;99599.72;130440;1289;22647;-79
2023/01/31 01:29:57;;;;;;;16.30;2.90;;;;;;;1.80;90.74;99613.88;130750;1289;22671;-80
2023/01/31 01:32:58;;;;;;;12.60;2.30;;;;;;;1.62;90.10;99611.98;130944;1286;25392;-80
2023/01/31 01:36:01;;;;;;;12.90;3.10;;;;;;;1.35;90.40;99629.46;130668;1293;22583;-80
2023/01/31 01:39:08;;;;;;;12.10;2.30;;;;;;;1.15;91.12;99623.54;131113;1285;22554;-80
2023/01/31 01:42:22;;;;;;;6.10;2.40;;;;;;;0.99;91.42;99629.98;130987;1289;22517;-79
2023/01/31 01:45:23;;;;;;;8.90;2.30;;;;;;;0.86;91.52;99619.43;130846;1293;22607;-80
2023/01/31 01:48:25;;;;;;;13.80;2.80;;;;;;;0.76;91.95;99630.20;131193;1286;22577;-80
2023/01/31 01:51:30;;;;;;;9.60;2.60;;;;;;;0.69;92.49;99635.91;130766;1292;22563;-80
2023/01/31 01:54:43;;;;;;;9.00;2.60;;;;;;;0.68;92.41;99634.95;130889;1288;22550;-83
2023/01/31 01:57:47;;;;;;;12.70;3.00;;;;;;;0.66;92.48;99639.79;130839;1292;25323;-80
2023/01/31 02:00:52;;;;;;;16.10;2.90;;;;;;;0.64;92.77;99640.14;131057;1289;22734;-80
2023/01/31 02:03:53;;;;;;;13.70;3.40;;;;;;;0.64;92.88;99638.36;130826;1291;22594;-80
2023/01/31 02:06:54;;;;;;;25.80;4.60;;;;;;;0.71;92.91;99645.55;131121;1293;22553;-80
2023/01/31 02:10:11;;;;;;;;;;;;;;;0.78;92.93;99653.65;131243;1292;25285;-80
2023/01/31 02:13:14;;;;;;;14.90;3.20;;;;;;;0.83;92.59;99652.58;130893;1288;24367;-80
2023/01/31 02:16:18;;;;;;;24.20;3.50;;;;;;;0.91;92.10;99660.02;130851;1295;22810;-80
2023/01/31 02:19:29;;;;;;;15.00;3.00;;;;;;;0.96;91.62;99656.15;131297;1289;22566;-80
2023/01/31 02:23:08;;;;;;;17.60;4.60;;;;;;;1.03;91.20;99659.64;130723;1288;22534;-80
2023/01/31 02:26:22;;;;;;;14.90;2.70;;;;;;;1.10;91.07;99666.40;130953;1295;22675;-80
2023/01/31 02:29:52;;;;;;;16.00;3.00;;;;;;;1.14;90.44;99671.23;130878;1289;23423;-79
2023/01/31 02:32:56;;;;;;;17.80;4.10;;;;;;;1.22;90.09;99685.39;130472;1293;22515;-80
2023/01/31 02:36:18;;;;;;;17.20;3.50;;;;;;;1.29;89.66;99695.45;130884;1288;22566;-79
2023/01/31 02:39:48;;;;;;;14.00;2.80;;;;;;;1.34;88.99;99692.80;130855;1288;22875;-80
2023/01/31 02:43:11;;;;;;;17.00;3.10;;;;;;;1.34;88.96;99697.86;130755;1295;25371;-80
2023/01/31 02:46:16;;;;;;;18.40;3.80;;;;;;;1.31;88.56;99703.31;130859;1289;23950;-80
2023/01/31 02:49:35;;;;;;;14.10;2.30;;;;;;;1.29;88.33;99713.04;130964;1289;22595;-80
2023/01/31 02:52:51;;;;;;;16.40;2.70;;;;;;;1.26;88.00;99722.66;130919;1291;22600;-80
2023/01/31 02:56:23;;;;;;;11.20;2.70;;;;;;;1.23;88.05;99728.14;130699;1293;22556;-79
2023/01/31 02:59:27;;;;;;;12.80;2.90;;;;;;;1.23;86.45;99726.77;130847;1286;22596;-80
2023/01/31 03:02:30;;;;;;;14.50;2.90;;;;;;;1.22;86.06;99738.36;131111;1286;22566;-80
2023/01/31 03:05:36;;;;;;;20.60;3.10;;;;;;;1.16;86.26;99740.17;131004;1289;22794;-80
2023/01/31 03:08:41;;;;;;;11.10;1.90;;;;;;;1.10;86.24;99745.80;130885;1285;22553;-80
2023/01/31 03:12:05;;;;;;;12.40;2.80;;;;;;;1.04;86.90;99752.92;130973;1285;22758;-82
2023/01/31 03:15:24;;;;;;;12.90;2.40;;;;;;;0.91;87.69;99762.64;130859;1291;26532;-79
2023/01/31 03:18:56;;;;;;;17.20;3.50;;;;;;;0.82;87.95;99770.39;130969;1295;22778;-80
2023/01/31 03:22:02;;;;;;;;;;;;;;;0.76;88.58;99777.14;130990;1285;22659;-80
2023/01/31 03:25:06;;;;;;;12.60;3.20;;;;;;;0.72;88.83;99782.33;130947;1289;23943;-80
2023/01/31 03:28:16;;;;;;;15.20;4.00;;;;;;;0.69;89.10;99787.52;131024;1293;22556;-80
2023/01/31 03:31:35;;;;;;;16.70;3.50;;;;;;;0.69;89.31;99789.86;131013;1288;22752;-80
2023/01/31 03:34:36;;;;;;;15.00;2.70;;;;;;;0.68;89.31;99793.71;130910;1288;22689;-80
2023/01/31 03:37:58;;;;;;;14.40;3.20;;;;;;;0.67;89.70;99796.18;130889;1288;22659;-80
2023/01/31 03:41:30;;;;;;;18.90;3.20;;;;;;;0.63;89.67;99797.00;130651;1293;22601;-80
2023/01/31 03:45:00;;;;;;;18.70;3.10;;;;;;;0.66;89.74;99803.09;130924;1285;26612;-80
2023/01/31 03:48:13;;;;;;;15.40;3.50;;;;;;;0.66;89.52;99808.61;131043;1286;24246;-80
2023/01/31 03:51:20;;;;;;;20.00;3.30;;;;;;;0.65;89.53;99809.08;130876;1292;22597;-80
2023/01/31 03:54:31;;;;;;;15.70;3.20;;;;;;;0.63;89.42;99810.46;130943;1293;23332;-80
2023/01/31 03:57:35;;;;;;;15.10;3.10;;;;;;;0.62;89.22;99820.63;130859;1288;25326;-80
2023/01/31 04:00:40;;;;;;;15.30;3.00;;;;;;;0.60;89.17;99813.77;131102;1288;22563;-80
2023/01/31 04:03:46;;;;;;;10.90;2.60;;;;;;;0.61;88.84;99816.64;130932;1286;25323;-80
2023/01/31 04:06:49;;;;;;;13.60;3.10;;;;;;;0.63;89.15;99817.38;131227;1293;22628;-80
2023/01/31 04:09:51;;;;;;;21.60;4.00;;;;;;;0.65;88.91;99819.16;130736;1295;25398;-80
2023/01/31 04:12:52;;;;;;;11.40;2.50;;;;;;;0.68;88.91;99833.76;130839;1292;22728;-80
2023/01/31 04:15:53;;;;;;;21.00;3.40;;;;;;;0.69;88.66;99845.02;130825;1292;26596;-80
2023/01/31 04:18:55;;;;;;;12.40;2.90;;;;;;;0.70;88.94;99854.52;131156;1289;22662;-80
2023/01/31 04:21:56;;;;;;;12.40;3.30;;;;;;;0.70;88.89;99856.41;131124;1293;22557;-79
2023/01/31 04:25:07;;;;;;;17.60;3.20;;;;;;;0.71;88.39;99853.23;130807;1286;22561;-80
2023/01/31 04:28:08;;;;;;;18.20;2.80;;;;;;;0.74;88.22;99855.63;130778;1288;24298;-80
2023/01/31 04:31:09;;;;;;;15.60;3.30;;;;;;;0.77;88.01;99859.25;130831;1295;22575;-80
2023/01/31 04:34:09;;;;;;;19.30;3.30;;;;;;;0.81;87.58;99870.63;130811;1292;22621;-80
2023/01/31 04:37:10;;;;;;;14.00;3.40;;;;;;;0.85;87.46;99870.49;131077;1289;24221;-82
2023/01/31 04:40:13;;;;;;;14.50;3.00;;;;;;;0.89;86.97;99881.55;131052;1295;24257;-80
2023/01/31 04:43:15;;;;;;;11.80;3.30;;;;;;;0.92;86.77;99887.42;130929;1295;24385;-80
2023/01/31 04:46:18;;;;;;;22.20;3.40;;;;;;;0.96;85.90;99892.51;130952;1286;22569;-80
2023/01/31 04:49:19;;;;;;;21.00;3.30;;;;;;;0.99;86.22;99893.67;130810;1286;24288;-79
2023/01/31 04:52:24;;;;;;;18.10;3.10;;;;;;;1.01;85.43;99891.23;131064;1289;24243;-80
2023/01/31 04:55:26;;;;;;;19.40;3.60;;;;;;;1.04;85.57;99892.45;131125;1294;23077;-79
2023/01/31 04:58:27;;;;;;;15.70;3.20;;;;;;;1.06;85.18;99893.02;131068;1286;22592;-80
2023/01/31 05:01:30;;;;;;;21.20;2.80;;;;;;;1.07;85.01;99890.16;130932;1286;24302;-80
2023/01/31 05:04:31;;;;;;;12.20;2.90;;;;;;;1.08;84.70;99894.47;131098;1286;22573;-80
2023/01/31 05:07:32;;;;;;;19.30;3.20;;;;;;;1.09;84.48;99897.46;131034;1291;25446;-80
2023/01/31 05:10:34;;;;;;;17.80;3.70;;;;;;;1.09;84.56;99902.73;131017;1289;25275;-80
2023/01/31 05:13:38;;;;;;;19.80;2.90;;;;;;;1.09;84.15;99901.00;131223;1295;25400;-80
2023/01/31 05:16:38;;;;;;;14.90;3.30;;;;;;;1.08;83.66;99900.86;130926;1291;22567;-80
2023/01/31 05:19:42;;;;;;;12.40;2.80;;;;;;;1.10;83.48;99911.17;131065;1289;22836;-80
2023/01/31 05:22:47;;;;;;;12.90;3.00;;;;;;;1.11;83.59;99921.04;131277;1293;22535;-80
2023/01/31 05:25:51;;;;;;;14.70;3.80;;;;;;;1.12;82.66;99913.10;131206;1295;22562;-80
2023/01/31 05:28:51;;;;;;;17.20;3.70;;;;;;;1.15;83.13;99923.58;131085;1286;22666;-80
2023/01/31 05:31:54;;;;;;;10.00;3.20;;;;;;;1.14;83.21;99923.10;130909;1295;177060;-80
2023/01/31 05:34:55;;;;;;;18.70;3.50;;;;;;;1.14;83.14;99928.34;130820;1293;22572;-80
2023/01/31 05:37:57;;;;;;;14.30;2.90;;;;;;;1.12;82.93;99932.64;131060;1286;22616;-80
2023/01/31 05:40:58;;;;;;;13.40;3.40;;;;;;;1.11;82.82;99936.72;131170;1292;22565;-80
2023/01/31 05:43:59;;;;;;;13.60;4.00;;;;;;;1.09;82.97;99944.55;131090;1286;24379;-80
2023/01/31 05:47:00;;;;;;;19.20;3.30;;;;;;;1.07;82.42;99946.93;131212;1285;24211;-80
2023/01/31 05:50:01;;;;;;;16.70;3.20;;;;;;;1.08;82.14;99945.45;130895;1291;24288;-80
2023/01/31 05:53:02;;;;;;;;;;;;;;;1.09;81.85;99947.27;131136;1288;25368;-80
2023/01/31 05:56:03;;;;;;;19.60;3.10;;;;;;;1.10;80.91;99954.71;131122;1292;24383;-80
2023/01/31 05:59:04;;;;;;;17.30;3.60;;;;;;;1.14;81.01;99960.76;131171;1285;22913;-81
2023/01/31 06:02:04;;;;;;;;;;;;;;;1.13;80.98;99961.34;131161;1286;25390;-81
2023/01/31 06:05:05;;;;;;;17.80;3.00;;;;;;;1.12;80.75;99965.92;131185;1286;22794;-79
2023/01/31 06:08:06;;;;;;;17.80;3.70;;;;;;;1.11;80.70;99962.48;131109;1291;22587;-80
2023/01/31 06:11:09;;;;;;;21.00;3.50;;;;;;;1.12;80.53;99967.80;131199;1286;22566;-79
2023/01/31 06:14:10;;;;;;;15.00;3.50;;;;;;;1.11;80.82;99966.33;130997;1288;25427;-80
2023/01/31 06:17:11;;;;;;;20.20;3.80;;;;;;;1.09;80.92;99974.70;131130;1289;25313;-80
2023/01/31 06:20:12;;;;;;;17.30;3.20;;;;;;;1.07;80.65;99980.38;131176;1289;22563;-80
2023/01/31 06:23:12;;;;;;;8.20;2.70;;;;;;;1.08;80.30;99980.63;131308;1286;22633;-80
2023/01/31 06:26:13;;;;;;;16.30;4.00;;;;;;;1.10;80.31;99996.39;131408;1289;22556;-80
2023/01/31 06:29:14;;;;;;;18.00;3.80;;;;;;;1.11;80.01;100000.52;131278;1286;22663;-80
2023/01/31 06:32:14;;;;;;;10.40;3.00;;;;;;;1.13;79.74;100004.02;131266;1291;22559;-80
2023/01/31 06:35:15;;;;;;;13.40;3.00;;;;;;;1.16;78.84;100010.95;131188;1295;24494;-80
2023/01/31 06:38:15;;;;;;;15.70;2.60;;;;;;;1.17;79.54;100011.21;131135;1289;22668;-80
2023/01/31 06:41:17;;;;;;;14.70;2.70;;;;;;;1.17;79.01;100016.97;131092;1295;24266;-80
2023/01/31 06:44:18;;;;;;;14.30;2.90;;;;;;;1.19;78.77;100016.64;130846;1280;22572;-80
2023/01/31 06:47:18;;;;;;;16.60;3.20;;;;;;;1.21;77.84;100014.09;131100;1292;28896;-80
2023/01/31 06:50:19;;;;;;;17.50;2.70;;;;;;;1.22;77.86;100016.13;131128;1292;22624;-79
2023/01/31 06:53:20;;;;;;;12.10;2.70;;;;;;;1.23;77.54;100022.42;131059;1286;22575;-80
2023/01/31 06:56:21;;;;;;;13.80;3.20;;;;;;;1.24;78.11;100028.69;131150;1289;22556;-80
2023/01/31 06:59:25;;;;;;;9.80;2.90;;;;;;;1.24;77.85;100032.52;131299;1286;22580;-80
2023/01/31 07:02:26;;;;;;;13.70;2.90;;;;;;;1.23;77.99;100031.89;131402;1286;22585;-81
2023/01/31 07:05:27;;;;;;;14.60;2.90;;;;;;;1.23;77.98;100033.08;131293;1286;22563;-81
2023/01/31 07:08:30;;;;;;;11.70;2.60;;;;;;;1.25;77.12;100036.60;131046;1289;22671;-79
2023/01/31 07:11:30;;;;;;;12.30;2.80;;;;;;;1.27;77.27;100043.96;130936;1289;22648;-78
2023/01/31 07:14:31;;;;;;;14.20;3.10;;;;;;;1.27;77.67;100050.73;131086;1289;22562;-78
2023/01/31 07:17:32;;;;;;;6.60;2.70;;;;;;;1.29;77.19;100051.15;130827;1286;24394;-79
2023/01/31 07:20:33;;;;;;;14.30;3.30;;;;;;;1.30;77.41;100058.19;130929;1286;22555;-79
2023/01/31 07:23:33;;;;;;;;;;;;;;;1.30;77.45;100057.52;130993;1294;22524;-78
2023/01/31 07:26:34;;;;;;;15.80;3.70;;;;;;;1.30;77.01;100068.66;130689;1285;22553;-79
2023/01/31 07:29:34;;;;;;;14.70;3.10;;;;;;;1.31;77.57;100070.64;130724;1289;22557;-79
2023/01/31 07:32:35;;;;;;;8.90;2.20;;;;;;;1.33;77.07;100074.20;130686;1289;22822;-79
2023/01/31 07:35:36;;;;;;;14.80;2.90;;;;;;;1.34;77.40;100074.27;130776;1292;24291;-80
2023/01/31 07:38:36;;;;;;;14.20;3.00;;;;;;;1.36;77.39;100077.66;130769;1289;22574;-79
2023/01/31 07:41:37;;;;;;;15.40;3.60;;;;;;;1.37;77.42;100084.77;131129;1295;22578;-78
2023/01/31 07:44:40;;;;;;;12.40;3.60;;;;;;;1.35;77.48;100091.83;131094;1292;24287;-80
2023/01/31 07:47:41;;;;;;;14.00;3.60;;;;;;;1.34;77.53;100095.92;131133;1290;24261;-79
2023/01/31 07:51:03;;;;;;;15.70;4.20;;;;;;;1.36;78.23;100100.89;130960;1285;22585;-79
2023/01/31 07:54:08;;;;;;;14.20;3.20;;;;;;;1.35;77.99;100103.37;130711;1286;24362;-78
2023/01/31 07:57:12;;;;;;;13.30;3.00;;;;;;;1.35;77.59;100107.53;130867;1286;22549;-80
2023/01/31 08:03:51;;;;;;;16.10;3.80;;;;;;;1.38;77.69;100109.45;129728;1297;25447;-79
2023/01/31 08:06:55;;;;;;;13.10;3.40;;;;;;;1.39;77.87;100116.30;131108;1285;25440;-79
2023/01/31 08:09:56;;;;;;;13.80;4.00;;;;;;;1.41;77.91;100120.21;131100;1295;24281;-80
2023/01/31 08:12:56;;;;;;;15.10;4.00;;;;;;;1.43;78.08;100126.87;131016;1293;25367;-80
2023/01/31 08:15:57;;;;;;;14.90;4.20;;;;;;;1.45;78.45;100132.33;131017;1291;22589;-81
2023/01/31 08:18:58;;;;;;;;;;;;;;;1.46;78.60;100129.09;130717;1285;22537;-79
2023/01/31 08:21:59;;;;;;;22.60;5.20;;;;;;;1.48;78.63;100131.40;130796;1286;22566;-78
2023/01/31 08:25:00;;;;;;;15.70;4.20;;;;;;;1.49;79.12;100134.45;130436;1286;24244;-79
2023/01/31 08:28:03;;;;;;;12.60;4.10;;;;;;;1.49;78.75;100129.05;130611;1289;22624;-78
2023/01/31 08:31:06;;;;;;;16.40;3.80;;;;;;;1.48;79.02;100129.42;130880;1286;22580;-80
2023/01/31 08:34:07;;;;;;;19.50;4.20;;;;;;;1.50;78.95;100130.70;130910;1292;22535;-80
2023/01/31 08:37:07;;;;;;;;;;;;;;;1.51;78.99;100124.70;130823;1287;22664;-79
2023/01/31 08:40:08;;;;;;;6.90;2.10;;;;;;;1.54;78.53;100122.55;130462;1288;24300;-78
2023/01/31 08:43:09;;;;;;;11.90;2.90;;;;;;;1.72;77.88;100133.16;130877;1289;22560;-82
2023/01/31 08:46:10;;;;;;;;;;;;;;;2.13;77.64;100134.55;131191;1294;25428;-78
2023/01/31 08:49:11;;;;;;;11.00;2.70;;;;;;;2.32;76.63;100134.91;131119;1286;22570;-79
2023/01/31 08:52:12;;;;;;;15.60;2.60;;;;;;;2.47;76.64;100141.11;130977;1289;22552;-79
2023/01/31 08:55:12;;;;;;;11.00;2.90;;;;;;;2.79;76.48;100144.12;130766;1289;22679;-80
2023/01/31 08:58:13;;;;;;;13.00;3.20;;;;;;;3.08;76.27;100144.73;131379;1288;22770;-81
2023/01/31 09:01:16;;;;;;;12.80;2.80;;;;;;;3.13;74.54;100146.92;131037;1295;23610;-81
2023/01/31 09:04:17;;;;;;;8.80;2.20;;;;;;;2.98;74.79;100158.73;131164;1294;22556;-79
2023/01/31 09:07:20;;;;;;;10.90;2.80;;;;;;;2.87;75.31;100162.74;131108;1292;22587;-78
2023/01/31 09:10:21;;;;;;;10.30;3.00;;;;;;;2.77;75.19;100160.05;131021;1293;22716;-80
2023/01/31 09:13:23;;;;;;;9.90;2.60;;;;;;;2.68;75.09;100159.77;130871;1292;24235;-78
2023/01/31 09:16:24;;;;;;;9.80;2.30;;;;;;;2.59;75.75;100166.10;131151;1293;24221;-79
2023/01/31 09:19:24;;;;;;;10.90;2.60;;;;;;;2.53;75.84;100170.91;131067;1286;22560;-80
2023/01/31 09:22:25;;;;;;;10.20;3.10;;;;;;;2.45;76.07;100169.42;131075;1291;22586;-80
2023/01/31 09:25:25;;;;;;;14.50;3.30;;;;;;;2.38;75.97;100170.44;130830;1286;22558;-81
2023/01/31 09:28:26;;;;;;;12.90;3.50;;;;;;;2.38;76.50;100179.54;131106;1295;22632;-80
2023/01/31 09:31:28;;;;;;;;;;;;;;;2.40;76.26;100183.89;131094;1289;22646;-80
2023/01/31 09:34:29;;;;;;;13.50;2.60;;;;;;;2.41;76.48;100188.04;130904;1292;22696;-80
2023/01/31 09:37:30;;;;;;;10.40;3.20;;;;;;;2.42;76.18;100184.95;131072;1295;25573;-81
2023/01/31 09:40:34;;;;;;;13.00;3.00;;;;;;;2.39;76.04;100182.53;130947;1289;22601;-80
2023/01/31 09:43:40;;;;;;;10.10;3.70;;;;;;;2.37;75.95;100179.45;131080;1292;24449;-80
2023/01/31 09:46:48;;;;;;;11.90;3.00;;;;;;;2.34;75.99;100181.02;131073;1295;25399;-80
2023/01/31 09:49:59;;;;;;;12.30;2.60;;;;;;;2.35;76.26;100183.04;130986;1286;25495;-80
2023/01/31 09:53:00;;;;;;;10.70;2.90;;;;;;;2.36;76.40;100182.09;131073;1288;22571;-81
2023/01/31 09:56:00;;;;;;;;;;;;;;;2.34;76.29;100178.20;130916;1295;22537;-79
2023/01/31 09:59:27;;;;;;;13.80;3.20;;;;;;;2.30;75.90;100170.52;131246;1295;22555;-81
2023/01/31 10:02:27;;;;;;;13.70;3.50;;;;;;;2.29;76.42;100176.16;131108;1292;22650;-80
2023/01/31 10:05:53;;;;;;;11.40;3.30;;;;;;;2.31;76.44;100170.80;131208;1290;22566;-80
2023/01/31 10:09:19;;;;;;;13.90;2.80;;;;;;;2.34;76.04;100162.50;131089;1292;23919;-81
2023/01/31 10:12:36;;;;;;;15.20;3.40;;;;;;;2.38;76.09;100170.10;130905;1286;25453;-81
2023/01/31 10:15:48;;;;;;;20.00;4.50;;;;;;;2.43;76.83;100177.73;130661;1295;25446;-82
2023/01/31 10:18:53;;;;;;;22.50;6.80;;;;;;;2.53;76.74;100173.56;131043;1295;22594;-80
2023/01/31 10:22:04;;;;;;;18.10;5.10;;;;;;;2.80;77.17;100172.34;131080;1286;22546;-80
2023/01/31 10:25:16;;;;;;;18.40;5.50;;;;;;;3.11;77.06;100169.49;131179;1287;25539;-81
2023/01/31 10:28:26;;;;;;;20.10;7.00;;;;;;;3.41;77.05;100164.36;130890;1292;22669;-80
2023/01/31 10:31:45;;;;;;;13.10;5.10;;;;;;;3.55;76.84;100154.16;130673;1286;24378;-80
2023/01/31 10:34:56;;;;;;;14.90;4.70;;;;;;;3.64;76.55;100153.88;130778;1286;22674;-81
2023/01/31 10:38:04;;;;;;;18.40;4.70;;;;;;;3.71;76.31;100148.90;130724;1289;25122;-81
2023/01/31 10:41:16;;;;;;;10.60;4.10;;;;;;;3.79;76.63;100145.60;130616;1292;24063;-82
2023/01/31 10:44:23;;;;;;;18.40;4.40;;;;;;;3.77;76.26;100141.94;130828;1289;22677;-82
2023/01/31 10:47:36;;;;;;;18.40;4.20;;;;;;;3.67;76.06;100143.61;130920;1288;25271;-81
2023/01/31 10:51:08;;;;;;;16.10;3.30;;;;;;;3.65;76.01;100139.80;130711;1286;22581;-81
2023/01/31 10:54:11;;;;;;;13.60;3.20;;;;;;;3.62;75.68;100142.45;130683;1287;22818;-81
2023/01/31 10:57:13;;;;;;;10.30;3.00;;;;;;;3.56;75.09;100142.55;130817;1292;22566;-82
2023/01/31 11:00:21;;;;;;;10.50;2.40;;;;;;;3.53;75.17;100149.25;130811;1295;22645;-80
2023/01/31 11:03:22;;;;;;;7.80;2.50;;;;;;;3.46;74.42;100147.88;130879;1292;22644;-80
2023/01/31 11:06:23;;;;;;;11.80;2.60;;;;;;;3.30;74.64;100145.27;130576;1289;24246;-81
2023/01/31 11:09:28;;;;;;;13.90;3.20;;;;;;;3.16;75.31;100145.16;130794;1292;22578;-80
2023/01/31 11:12:51;;;;;;;15.90;3.60;;;;;;;3.09;76.60;100150.92;130615;1294;23032;-81
2023/01/31 11:15:54;;;;;;;13.10;3.60;;;;;;;2.99;77.11;100142.48;131097;1292;22572;-81
2023/01/31 11:18:57;;;;;;;19.10;4.70;;;;;;;2.92;77.99;100126.52;130673;1295;22574;-81
2023/01/31 11:21:58;;;;;;;13.20;3.70;;;;;;;2.95;78.76;100124.04;130904;1295;22627;-81
2023/01/31 11:25:03;;;;;;;10.90;3.00;;;;;;;2.97;79.12;100120.11;131089;1292;24300;-82
2023/01/31 11:28:18;;;;;;;17.60;4.10;;;;;;;2.96;79.03;100112.45;130695;1289;24272;-81
2023/01/31 11:31:33;;;;;;;14.90;4.30;;;;;;;2.95;79.09;100113.27;130426;1292;22566;-81
2023/01/31 11:34:34;;;;;;;14.80;3.70;;;;;;;2.95;79.64;100108.85;130351;1296;22825;-80
2023/01/31 11:37:47;;;;;;;15.00;2.90;;;;;;;2.93;79.75;100107.06;130867;1295;23898;-80
2023/01/31 11:40:48;;;;;;;19.10;4.20;;;;;;;2.93;79.75;100104.64;130704;1286;22579;-80
2023/01/31 11:43:48;;;;;;;;;;;;;;;2.92;79.65;100091.75;130694;1287;22818;-80
2023/01/31 11:46:58;;;;;;;20.60;3.40;;;;;;;2.91;79.96;100090.63;130516;1292;25265;-81
2023/01/31 11:50:01;;;;;;;16.50;3.90;;;;;;;2.90;79.67;100085.80;130682;1286;25904;-80
2023/01/31 11:53:14;;;;;;;19.90;5.30;;;;;;;2.91;80.12;100083.45;130720;1291;24313;-81
2023/01/31 11:56:19;;;;;;;21.00;5.70;;;;;;;2.93;80.51;100079.83;130850;1295;23006;-82
2023/01/31 11:59:24;;;;;;;21.90;5.00;;;;;;;2.95;80.77;100080.57;131070;1292;22679;-81
2023/01/31 12:02:40;;;;;;;19.30;6.40;;;;;;;2.91;80.80;100077.85;130948;1293;24281;-81
2023/01/31 12:05:48;;;;;;;27.60;6.80;;;;;;;2.87;81.02;100079.38;130839;1291;22563;-81
2023/01/31 12:08:53;;;;;;;24.70;6.30;;;;;;;2.89;81.50;100070.53;130888;1292;25271;-82
2023/01/31 12:11:57;;;;;;;25.70;7.50;;;;;;;2.90;81.46;100069.05;130894;1288;22669;-82
2023/01/31 12:15:14;;;;;;;14.40;5.50;;;;;;;2.91;81.75;100066.46;130912;1295;22564;-80
2023/01/31 12:18:43;;;;;;;21.60;4.80;;;;;;;2.95;81.87;100058.84;130661;1286;22686;-82
2023/01/31 12:21:48;;;;;;;30.90;6.40;;;;;;;3.01;81.69;100049.29;130558;1288;25507;-82
2023/01/31 12:25:21;;;;;;;26.40;5.90;;;;;;;3.05;81.54;100042.34;130765;1289;24249;-83
2023/01/31 12:28:34;;;;;;;21.30;5.80;;;;;;;3.06;81.47;100036.83;130643;1292;25493;-81
2023/01/31 12:32:13;;;;;;;10.80;3.80;;;;;;;3.05;81.39;100029.56;130846;1286;25460;-82
2023/01/31 12:35:33;;;;;;;21.30;4.30;;;;;;;3.06;81.43;100030.20;131063;1286;22687;-80
2023/01/31 12:38:45;;;;;;;13.00;4.40;;;;;;;3.06;81.94;100025.85;130988;1292;22559;-78
2023/01/31 12:42:11;;;;;;;14.50;3.80;;;;;;;2.97;82.71;100027.43;131053;1286;22563;-79
2023/01/31 12:45:41;;;;;;;11.10;4.20;;;;;;;2.91;82.86;100026.85;130993;1287;24362;-81
2023/01/31 12:48:51;;;;;;;8.50;3.20;;;;;;;2.86;83.46;100023.95;130833;1292;22550;-82
2023/01/31 12:52:00;;;;;;;9.90;3.40;;;;;;;2.76;83.71;100030.34;130705;1288;23701;-79
2023/01/31 12:55:39;;;;;;;6.10;3.30;;;;;;;2.66;84.34;100021.40;130707;1287;22559;-79
2023/01/31 12:58:40;;;;;;;9.90;3.10;;;;;;;2.63;84.57;100019.05;130800;1288;22570;-79
2023/01/31 13:01:59;;;;;;;13.10;3.90;;;;;;;2.63;84.70;100019.79;130903;1286;25613;-80
2023/01/31 13:05:09;;;;;;;10.40;3.80;;;;;;;2.63;84.69;100016.48;130994;1279;22582;-82
2023/01/31 13:08:31;;;;;;;11.40;3.60;;;;;;;2.63;85.21;100014.36;130833;1286;22590;-80
2023/01/31 13:11:39;;;;;;;14.50;5.70;;;;;;;2.61;85.21;100008.56;130797;1288;23943;-80
2023/01/31 13:14:44;;;;;;;17.00;5.90;;;;;;;2.58;85.66;100001.96;131118;1289;25506;-79
2023/01/31 13:17:47;;;;;;;14.90;5.90;;;;;;;2.59;85.54;100001.04;130859;1291;22627;-80
2023/01/31 13:20:57;;;;;;;11.00;4.70;;;;;;;2.63;85.69;99994.98;130894;1288;24241;-80
2023/01/31 13:24:01;;;;;;;;;;;;;;;2.67;86.07;99985.73;130952;1295;22613;-80
2023/01/31 13:27:04;;;;;;;19.50;5.40;;;;;;;2.69;85.74;99979.82;131045;1286;22775;-80
2023/01/31 13:30:18;;;;;;;11.70;4.40;;;;;;;2.69;85.79;99977.35;130903;1292;24130;-80
2023/01/31 13:33:22;;;;;;;14.50;5.70;;;;;;;2.68;85.76;99974.83;130962;1286;24254;-80
2023/01/31 13:36:32;;;;;;;14.00;4.70;;;;;;;2.67;86.05;99970.34;130935;1292;22603;-79
2023/01/31 13:39:38;;;;;;;16.00;5.40;;;;;;;2.63;86.21;99969.42;130870;1295;22559;-79
2023/01/31 13:42:39;;;;;;;12.20;4.90;;;;;;;2.60;86.30;99964.82;130854;1286;25394;-80
2023/01/31 13:45:51;;;;;;;14.10;4.60;;;;;;;2.56;86.84;99961.13;130988;1286;22658;-81
2023/01/31 13:48:59;;;;;;;13.90;6.20;;;;;;;2.52;87.03;99954.08;130865;1292;22553;-79
2023/01/31 13:52:13;;;;;;;15.40;4.90;;;;;;;2.52;87.40;99948.31;130875;1280;25513;-80
2023/01/31 13:55:33;;;;;;;16.70;4.80;;;;;;;2.53;87.31;99949.96;130840;1295;22580;-81
2023/01/31 13:58:35;;;;;;;11.60;4.50;;;;;;;2.53;87.25;99941.96;130760;1289;22700;-80
2023/01/31 14:01:48;;;;;;;18.00;5.10;;;;;;;2.51;87.18;99940.92;130735;1295;23140;-82
2023/01/31 14:04:49;;;;;;;18.90;5.30;;;;;;;2.50;87.33;99943.45;131060;1289;24378;-81
2023/01/31 14:08:28;;;;;;;12.90;4.80;;;;;;;2.48;87.42;99945.16;130779;1286;24396;-79
2023/01/31 14:11:29;;;;;;;16.40;5.20;;;;;;;2.46;87.04;99938.35;130789;1286;24255;-81
2023/01/31 14:14:51;;;;;;;17.40;4.90;;;;;;;2.44;87.04;99937.04;130829;1286;27292;-81
2023/01/31 14:17:51;;;;;;;15.90;4.80;;;;;;;2.41;87.08;99930.63;131000;1294;22562;-81
2023/01/31 14:20:52;;;;;;;20.90;6.80;;;;;;;2.43;87.02;99934.04;131049;1293;23946;-80
2023/01/31 14:24:05;;;;;;;13.80;5.30;;;;;;;2.42;87.11;99930.02;130928;1294;24233;-79
2023/01/31 14:27:34;;;;;;;22.80;5.50;;;;;;;2.42;87.12;99928.14;130999;1289;25516;-79
2023/01/31 14:30:41;;;;;;;12.70;4.00;;;;;;;2.42;87.29;99928.48;130740;1286;22715;-78
2023/01/31 14:33:47;;;;;;;18.90;5.50;;;;;;;2.42;87.30;99934.94;130488;1286;22876;-79